createdAt,value
2022-11-27T00:00:38.540Z,21.67
2022-11-27T00:03:13.481Z,19.93
2022-11-27T00:05:58.671Z,24.33
2022-11-27T00:08:33.765Z,24.80
2022-11-27T00:11:18.339Z,25.47
2022-11-27T00:13:53.464Z,28.60
2022-11-27T00:16:29.041Z,23.00
2022-11-27T00:19:04.103Z,22.57
2022-11-27T00:21:38.993Z,23.00
2022-11-27T00:24:13.904Z,20.03
2022-11-27T00:26:49.742Z,20.33
2022-11-27T00:29:28.930Z,24.73
2022-11-27T00:32:06.443Z,22.37
2022-11-27T00:34:41.413Z,19.80
2022-11-27T00:37:16.386Z,20.87
2022-11-27T00:39:51.338Z,22.80
2022-11-27T00:42:26.216Z,25.07
2022-11-27T00:45:01.103Z,20.63
2022-11-27T00:47:35.929Z,23.53
2022-11-27T00:50:10.988Z,22.07
2022-11-27T00:52:45.880Z,21.40
2022-11-27T00:55:20.714Z,29.87
2022-11-27T00:57:55.547Z,22.53
2022-11-27T01:00:30.368Z,28.33
2022-11-27T01:03:05.271Z,25.23
2022-11-27T01:05:40.108Z,20.37
2022-11-27T01:08:14.929Z,20.77
2022-11-27T01:10:57.728Z,19.83
2022-11-27T01:13:36.476Z,21.70
2022-11-27T01:16:24.151Z,28.80
2022-11-27T01:19:01.501Z,23.80
2022-11-27T01:21:36.512Z,25.17
2022-11-27T01:24:14.826Z,21.80
2022-11-27T01:26:49.696Z,24.50
2022-11-27T01:29:24.556Z,21.53
2022-11-27T01:31:59.384Z,23.37
2022-11-27T01:34:34.514Z,20.63
2022-11-27T01:37:09.446Z,23.03
2022-11-27T01:39:44.295Z,24.97
2022-11-27T01:42:19.186Z,23.70
2022-11-27T01:44:55.927Z,23.37
2022-11-27T01:47:45.872Z,25.60
2022-11-27T01:50:35.565Z,21.30
2022-11-27T01:53:18.110Z,21.13
2022-11-27T01:55:59.291Z,21.07
2022-11-27T01:58:35.677Z,21.20
2022-11-27T02:01:10.885Z,24.87
2022-11-27T02:03:45.798Z,28.33
2022-11-27T02:06:20.633Z,21.97
2022-11-27T02:08:56.499Z,21.73
2022-11-27T02:12:17.051Z,25.23
2022-11-27T02:15:13.303Z,21.10
2022-11-27T02:18:09.524Z,21.73
2022-11-27T02:21:06.080Z,17.13
2022-11-27T02:24:00.498Z,20.17
2022-11-27T02:27:08.808Z,20.70
2022-11-27T02:29:48.252Z,23.50
2022-11-27T02:32:59.548Z,24.43
2022-11-27T02:35:52.460Z,20.77
2022-11-27T02:38:39.490Z,19.90
2022-11-27T02:41:47.168Z,22.10
2022-11-27T02:44:23.779Z,24.77
2022-11-27T02:46:59.314Z,23.33
2022-11-27T02:49:36.113Z,21.30
2022-11-27T02:52:13.412Z,23.47
2022-11-27T02:54:52.207Z,22.23
2022-11-27T02:57:28.155Z,20.77
2022-11-27T03:00:04.653Z,23.73
2022-11-27T03:02:46.151Z,24.07
2022-11-27T03:05:23.951Z,22.77
2022-11-27T03:08:09.610Z,25.73
2022-11-27T03:11:07.432Z,21.10
2022-11-27T03:14:06.331Z,20.80
2022-11-27T03:17:06.260Z,25.20
2022-11-27T03:20:15.519Z,24.13
2022-11-27T03:22:53.354Z,24.63
2022-11-27T03:25:28.912Z,17.60
2022-11-27T03:28:08.447Z,21.37
2022-11-27T03:30:43.326Z,22.23
2022-11-27T03:33:18.347Z,19.63
2022-11-27T03:35:53.431Z,18.00
2022-11-27T03:38:28.515Z,19.77
2022-11-27T03:41:19.697Z,17.80
2022-11-27T03:44:22.170Z,18.10
2022-11-27T03:47:18.149Z,19.53
2022-11-27T03:50:01.840Z,17.50
2022-11-27T03:53:09.514Z,18.10
2022-11-27T03:56:15.179Z,17.63
2022-11-27T03:59:24.144Z,16.23
2022-11-27T04:01:59.071Z,18.60
2022-11-27T04:04:33.939Z,23.17
2022-11-27T04:07:16.185Z,18.90
2022-11-27T04:09:51.087Z,17.70
2022-11-27T04:12:25.942Z,16.90
2022-11-27T04:15:00.972Z,16.47
2022-11-27T04:17:35.916Z,16.07
2022-11-27T04:20:14.361Z,18.50
2022-11-27T04:22:49.270Z,16.60
2022-11-27T04:25:24.168Z,14.97
2022-11-27T04:27:59.107Z,16.40
2022-11-27T04:30:34.181Z,19.67
2022-11-27T04:33:09.006Z,17.27
2022-11-27T04:35:44.195Z,18.53
2022-11-27T04:38:20.997Z,21.20
2022-11-27T04:40:55.848Z,17.60
2022-11-27T04:43:30.723Z,17.10
2022-11-27T04:46:05.707Z,16.10
2022-11-27T04:48:40.572Z,16.47
2022-11-27T04:51:15.453Z,20.30
2022-11-27T04:53:50.527Z,17.63
2022-11-27T04:56:25.461Z,16.57
2022-11-27T04:59:01.046Z,19.07
2022-11-27T05:01:35.943Z,16.87
2022-11-27T05:04:10.921Z,20.47
2022-11-27T05:06:45.986Z,18.88
2022-11-27T05:09:21.283Z,18.00
2022-11-27T05:11:56.179Z,19.47
2022-11-27T05:14:31.168Z,17.47
2022-11-27T05:17:06.204Z,16.77
2022-11-27T05:19:41.061Z,18.17
2022-11-27T05:22:15.981Z,21.43
2022-11-27T05:24:50.829Z,17.47
2022-11-27T05:27:25.721Z,22.40
2022-11-27T05:30:00.578Z,16.57
2022-11-27T05:32:35.437Z,17.20
2022-11-27T05:35:10.305Z,16.10
2022-11-27T05:37:45.165Z,15.17
2022-11-27T05:40:20.028Z,17.40
2022-11-27T05:42:54.839Z,17.17
2022-11-27T05:45:30.180Z,14.07
2022-11-27T05:48:05.287Z,16.53
2022-11-27T05:50:40.268Z,15.80
2022-11-27T05:53:15.188Z,13.70
2022-11-27T05:55:50.015Z,15.20
2022-11-27T05:58:24.839Z,18.03
2022-11-27T06:01:00.173Z,13.20
2022-11-27T06:03:35.700Z,10.90
2022-11-27T06:06:15.511Z,13.67
2022-11-27T06:08:50.391Z,13.73
2022-11-27T06:11:25.279Z,13.37
2022-11-27T06:14:00.165Z,12.30
2022-11-27T06:16:35.036Z,11.63
2022-11-27T06:19:10.008Z,13.20
2022-11-27T06:21:46.434Z,14.87
2022-11-27T06:24:21.284Z,13.63
2022-11-27T06:26:56.134Z,13.77
2022-11-27T06:29:31.155Z,14.50
2022-11-27T06:32:06.743Z,16.37
2022-11-27T06:34:41.850Z,14.77
2022-11-27T06:37:16.853Z,11.40
2022-11-27T06:39:51.811Z,11.90
2022-11-27T06:42:30.239Z,15.43
2022-11-27T06:45:05.969Z,15.07
2022-11-27T06:47:40.829Z,17.07
2022-11-27T06:50:15.716Z,15.30
2022-11-27T06:52:50.567Z,15.80
2022-11-27T06:55:25.383Z,12.90
2022-11-27T06:58:00.285Z,12.47
2022-11-27T07:00:35.164Z,17.43
2022-11-27T07:03:10.066Z,15.35
2022-11-27T07:05:45.020Z,15.40
2022-11-27T07:08:20.709Z,18.27
2022-11-27T07:11:06.130Z,15.90
2022-11-27T07:13:41.396Z,17.67
2022-11-27T07:16:17.594Z,14.37
2022-11-27T07:18:56.254Z,17.63
2022-11-27T07:21:31.357Z,14.60
2022-11-27T07:24:06.805Z,14.20
2022-11-27T07:26:41.808Z,15.30
2022-11-27T07:29:16.635Z,15.47
2022-11-27T07:31:51.707Z,16.87
2022-11-27T07:34:26.653Z,17.60
2022-11-27T07:37:01.616Z,19.67
2022-11-27T07:40:00.697Z,16.87
2022-11-27T07:42:38.005Z,16.60
2022-11-27T07:45:13.521Z,15.90
2022-11-27T07:47:48.347Z,14.83
2022-11-27T07:50:23.311Z,16.07
2022-11-27T07:52:58.956Z,12.30
2022-11-27T07:55:33.833Z,14.50
2022-11-27T07:58:09.191Z,14.03
2022-11-27T08:00:44.268Z,14.27
2022-11-27T08:03:19.115Z,14.47
2022-11-27T08:05:54.095Z,12.60
2022-11-27T08:08:28.955Z,16.83
2022-11-27T08:11:03.787Z,18.27
2022-11-27T08:13:38.618Z,13.67
2022-11-27T08:16:13.663Z,12.30
2022-11-27T08:18:48.507Z,11.50
2022-11-27T08:21:23.937Z,13.60
2022-11-27T08:23:58.828Z,11.30
2022-11-27T08:26:33.804Z,12.77
2022-11-27T08:29:12.379Z,14.37
2022-11-27T08:31:47.669Z,13.40
2022-11-27T08:34:22.564Z,9.93
2022-11-27T08:36:57.466Z,11.70
2022-11-27T08:39:32.306Z,12.90
2022-11-27T08:42:07.188Z,11.07
2022-11-27T08:44:42.531Z,9.83
2022-11-27T08:47:17.545Z,10.60
2022-11-27T08:49:52.914Z,8.87
2022-11-27T08:52:27.759Z,8.90
2022-11-27T08:55:02.652Z,8.23
2022-11-27T08:57:37.898Z,8.67
2022-11-27T09:00:13.531Z,8.57
2022-11-27T09:02:48.356Z,7.70
2022-11-27T09:05:24.162Z,8.80
2022-11-27T09:08:01.652Z,8.63
2022-11-27T09:10:37.327Z,6.97
2022-11-27T09:13:12.467Z,8.00
2022-11-27T09:15:47.352Z,8.77
2022-11-27T09:18:22.191Z,7.63
2022-11-27T09:21:03.628Z,7.13
2022-11-27T09:23:39.468Z,8.13
2022-11-27T09:26:17.000Z,6.80
2022-11-27T09:28:54.174Z,6.80
2022-11-27T09:31:29.069Z,6.80
2022-11-27T09:34:04.816Z,6.53
2022-11-27T09:36:39.692Z,6.33
2022-11-27T09:39:15.620Z,7.80
2022-11-27T09:41:55.452Z,6.80
2022-11-27T09:44:54.112Z,7.40
2022-11-27T09:47:41.892Z,7.90
2022-11-27T09:50:24.931Z,6.33
2022-11-27T09:53:15.785Z,6.67
2022-11-27T09:55:54.094Z,8.63
2022-11-27T09:58:59.902Z,6.37
2022-11-27T10:01:44.176Z,9.20
2022-11-27T10:04:22.602Z,7.97
2022-11-27T10:07:09.345Z,8.87
2022-11-27T10:10:47.966Z,7.27
2022-11-27T10:13:34.250Z,8.87
2022-11-27T10:16:30.225Z,6.37
2022-11-27T10:20:17.894Z,7.70
2022-11-27T10:23:37.741Z,8.43
2022-11-27T10:26:25.806Z,8.53
2022-11-27T10:29:12.726Z,7.57
2022-11-27T10:31:57.710Z,7.93
2022-11-27T10:34:44.152Z,6.50
2022-11-27T10:37:39.211Z,6.40
2022-11-27T10:40:14.136Z,7.90
2022-11-27T10:42:56.624Z,6.20
2022-11-27T10:45:56.672Z,10.27
2022-11-27T10:48:33.219Z,5.17
2022-11-27T10:51:18.188Z,5.93
2022-11-27T10:53:54.670Z,6.33
2022-11-27T10:56:56.617Z,5.90
2022-11-27T10:59:54.931Z,5.30
2022-11-27T11:02:38.455Z,7.00
2022-11-27T11:05:50.470Z,4.70
2022-11-27T11:08:21.582Z,4.60
2022-11-27T11:11:04.173Z,8.30
2022-11-27T11:13:41.843Z,7.50
2022-11-27T11:16:23.993Z,4.20
2022-11-27T11:19:01.437Z,4.47
2022-11-27T11:21:41.523Z,4.00
2022-11-27T11:24:28.214Z,6.80
2022-11-27T11:27:27.393Z,3.80
2022-11-27T11:30:05.936Z,3.77
2022-11-27T11:32:42.006Z,4.37
2022-11-27T11:35:34.717Z,5.10
2022-11-27T11:38:17.632Z,4.87
2022-11-27T11:41:04.270Z,4.77
2022-11-27T11:43:40.110Z,3.80
2022-11-27T11:46:28.396Z,4.87
2022-11-27T11:49:17.442Z,4.50
2022-11-27T11:52:38.184Z,5.50
2022-11-27T11:55:27.687Z,5.90
2022-11-27T11:58:19.788Z,6.10
2022-11-27T12:01:43.430Z,5.23
2022-11-27T12:04:32.280Z,4.70
2022-11-27T12:07:39.286Z,5.00
2022-11-27T12:10:36.700Z,5.33
2022-11-27T12:13:20.987Z,5.33
2022-11-27T12:16:17.625Z,7.00
2022-11-27T12:19:14.379Z,5.80
2022-11-27T12:22:00.117Z,5.57
2022-11-27T12:25:04.672Z,4.73
2022-11-27T12:28:22.650Z,6.10
2022-11-27T12:31:08.280Z,5.60
2022-11-27T12:34:14.568Z,5.13
2022-11-27T12:36:58.632Z,4.67
2022-11-27T12:40:01.538Z,6.10
2022-11-27T12:43:15.706Z,4.87
2022-11-27T12:46:47.869Z,4.83
2022-11-27T12:49:45.204Z,3.57
2022-11-27T12:52:32.757Z,3.30
2022-11-27T12:55:21.467Z,3.97
2022-11-27T12:58:00.651Z,4.50
2022-11-27T13:00:40.055Z,4.40
2022-11-27T13:03:36.795Z,4.17
2022-11-27T13:06:19.823Z,4.23
2022-11-27T13:09:12.990Z,4.37
2022-11-27T13:11:48.234Z,4.20
2022-11-27T13:14:26.459Z,4.17
2022-11-27T13:17:08.868Z,4.90
2022-11-27T13:19:50.224Z,4.37
2022-11-27T13:22:34.655Z,4.43
2022-11-27T13:25:14.798Z,4.83
2022-11-27T13:27:52.839Z,5.57
2022-11-27T13:30:33.151Z,4.47
2022-11-27T13:33:25.741Z,4.53
2022-11-27T13:36:03.721Z,4.77
2022-11-27T13:38:42.501Z,5.00
2022-11-27T13:41:23.048Z,5.27
2022-11-27T13:43:58.669Z,6.53
2022-11-27T13:46:45.604Z,7.53
2022-11-27T13:49:31.417Z,6.40
2022-11-27T13:52:19.720Z,6.47
2022-11-27T13:55:00.005Z,5.80
2022-11-27T13:57:35.201Z,5.07
2022-11-27T14:00:16.228Z,6.93
2022-11-27T14:02:52.127Z,6.43
2022-11-27T14:05:44.842Z,5.73
2022-11-27T14:08:30.731Z,4.67
2022-11-27T14:11:14.373Z,6.23
2022-11-27T14:13:51.994Z,5.00
2022-11-27T14:16:36.008Z,5.97
2022-11-27T14:19:41.856Z,4.67
2022-11-27T14:22:33.871Z,4.03
2022-11-27T14:25:32.058Z,5.13
2022-11-27T14:28:26.077Z,4.50
2022-11-27T14:31:02.802Z,5.00
2022-11-27T14:34:07.247Z,5.57
2022-11-27T14:36:39.290Z,5.73
2022-11-27T14:39:46.570Z,6.27
2022-11-27T14:42:29.269Z,5.80
2022-11-27T14:45:21.185Z,7.20
2022-11-27T14:47:56.089Z,6.80
2022-11-27T14:50:31.462Z,6.90
2022-11-27T14:53:06.516Z,7.03
2022-11-27T14:55:41.496Z,8.87
2022-11-27T14:58:20.995Z,7.30
2022-11-27T15:01:01.292Z,8.97
2022-11-27T15:03:37.046Z,8.20
2022-11-27T15:06:19.596Z,9.67
2022-11-27T15:09:23.743Z,10.13
2022-11-27T15:12:24.650Z,11.73
2022-11-27T15:15:28.771Z,8.50
2022-11-27T15:18:07.796Z,7.37
2022-11-27T15:20:46.877Z,6.53
2022-11-27T15:23:27.775Z,7.23
2022-11-27T15:26:02.773Z,7.10
2022-11-27T15:28:49.469Z,8.03
2022-11-27T15:31:37.326Z,12.20
2022-11-27T15:34:18.560Z,9.60
2022-11-27T15:37:06.287Z,10.00
2022-11-27T15:40:24.597Z,7.43
2022-11-27T15:42:59.558Z,8.07
2022-11-27T15:45:34.521Z,6.57
2022-11-27T15:48:16.809Z,8.50
2022-11-27T15:50:52.171Z,8.40
2022-11-27T15:53:27.042Z,7.70
2022-11-27T15:56:01.905Z,7.60
2022-11-27T15:58:36.779Z,7.03
2022-11-27T16:01:12.065Z,5.73
2022-11-27T16:03:47.156Z,6.00
2022-11-27T16:06:24.597Z,6.50
2022-11-27T16:09:01.389Z,5.67
2022-11-27T16:11:36.334Z,5.90
2022-11-27T16:14:11.648Z,4.97
2022-11-27T16:16:46.549Z,6.67
2022-11-27T16:19:21.440Z,6.83
2022-11-27T16:21:56.818Z,5.13
2022-11-27T16:24:31.704Z,7.43
2022-11-27T16:27:07.293Z,6.80
2022-11-27T16:29:42.692Z,7.10
2022-11-27T16:32:17.589Z,9.87
2022-11-27T16:34:52.506Z,6.93
2022-11-27T16:37:27.360Z,7.50
2022-11-27T16:40:02.533Z,7.30
2022-11-27T16:42:38.348Z,6.73
2022-11-27T16:45:13.242Z,9.90
2022-11-27T16:47:48.528Z,8.70
2022-11-27T16:50:26.647Z,8.30
2022-11-27T16:53:01.739Z,8.37
2022-11-27T16:55:36.591Z,7.97
2022-11-27T16:58:11.486Z,7.20
2022-11-27T17:00:46.493Z,7.23
2022-11-27T17:03:21.682Z,8.90
2022-11-27T17:05:56.649Z,7.00
2022-11-27T17:08:31.543Z,7.30
2022-11-27T17:11:24.853Z,6.63
2022-11-27T17:14:05.098Z,8.73
2022-11-27T17:16:42.589Z,7.30
2022-11-27T17:19:18.671Z,6.97
2022-11-27T17:21:53.568Z,7.17
2022-11-27T17:24:28.909Z,7.10
2022-11-27T17:27:04.622Z,10.00
2022-11-27T17:29:39.699Z,6.97
2022-11-27T17:32:14.728Z,7.77
2022-11-27T17:34:49.616Z,8.17
2022-11-27T17:37:24.573Z,7.90
2022-11-27T17:39:59.550Z,6.80
2022-11-27T17:42:34.417Z,8.53
2022-11-27T17:45:09.794Z,7.23
2022-11-27T17:47:44.874Z,9.07
2022-11-27T17:50:20.147Z,7.40
2022-11-27T17:52:55.058Z,7.50
2022-11-27T17:55:30.286Z,7.67
2022-11-27T17:58:05.511Z,8.10
2022-11-27T18:00:41.216Z,7.47
2022-11-27T18:03:16.209Z,7.63
2022-11-27T18:05:51.118Z,7.77
2022-11-27T18:08:26.077Z,8.00
2022-11-27T18:11:10.496Z,7.90
2022-11-27T18:13:45.896Z,8.90
2022-11-27T18:16:28.831Z,7.90
2022-11-27T18:19:10.561Z,6.93
2022-11-27T18:21:45.455Z,7.93
2022-11-27T18:24:23.443Z,7.03
2022-11-27T18:27:09.183Z,8.47
2022-11-27T18:29:45.138Z,7.97
2022-11-27T18:32:20.256Z,6.90
2022-11-27T18:34:55.340Z,7.40
2022-11-27T18:37:30.250Z,7.40
2022-11-27T18:40:07.498Z,8.13
2022-11-27T18:42:42.695Z,8.57
2022-11-27T18:45:32.275Z,8.03
2022-11-27T18:48:08.285Z,6.27
2022-11-27T18:50:43.589Z,8.10
2022-11-27T18:53:18.487Z,7.20
2022-11-27T18:55:53.345Z,8.73
2022-11-27T18:58:30.717Z,9.50
2022-11-27T19:01:14.831Z,6.70
2022-11-27T19:03:50.599Z,6.57
2022-11-27T19:06:25.582Z,8.20
2022-11-27T19:09:00.445Z,8.00
2022-11-27T19:11:35.961Z,6.20
2022-11-27T19:14:11.392Z,5.63
2022-11-27T19:16:47.042Z,6.37
2022-11-27T19:22:19.891Z,7.80
2022-11-27T19:24:54.833Z,7.43
2022-11-27T19:27:29.709Z,8.30
2022-11-27T19:30:05.654Z,6.70
2022-11-27T19:32:40.516Z,8.30
2022-11-27T19:35:15.414Z,9.17
2022-11-27T19:37:50.941Z,8.27
2022-11-27T19:40:31.571Z,7.80
2022-11-27T19:43:06.480Z,7.20
2022-11-27T19:45:41.426Z,7.97
2022-11-27T19:48:22.688Z,8.63
2022-11-27T19:51:02.002Z,11.00
2022-11-27T19:53:37.841Z,10.60
2022-11-27T19:56:12.893Z,8.33
2022-11-27T19:58:47.905Z,13.10
2022-11-27T20:01:23.112Z,8.10
2022-11-27T20:03:58.907Z,9.47
2022-11-27T20:06:35.551Z,8.67
2022-11-27T20:09:10.988Z,9.10
2022-11-27T20:11:47.372Z,9.40
2022-11-27T20:14:22.705Z,11.90
2022-11-27T20:16:57.931Z,10.07
2022-11-27T20:19:32.943Z,10.77
2022-11-27T20:22:07.840Z,10.93
2022-11-27T20:25:04.018Z,10.53
2022-11-27T20:27:37.900Z,9.80
2022-11-27T20:30:13.052Z,10.33
2022-11-27T20:32:47.926Z,9.47
2022-11-27T20:35:23.180Z,9.50
2022-11-27T20:37:58.042Z,10.20
2022-11-27T20:40:33.651Z,12.17
2022-11-27T20:43:08.911Z,10.67
2022-11-27T20:45:44.189Z,8.37
2022-11-27T20:48:20.257Z,9.30
2022-11-27T20:50:55.309Z,8.77
2022-11-27T20:53:30.238Z,7.80
2022-11-27T20:56:07.224Z,10.50
2022-11-27T20:58:45.179Z,9.47
2022-11-27T21:01:33.712Z,10.23
2022-11-27T21:04:21.008Z,11.43
2022-11-27T21:06:57.409Z,8.73
2022-11-27T21:09:32.604Z,9.47
2022-11-27T21:12:07.530Z,8.87
2022-11-27T21:14:45.294Z,9.60
2022-11-27T21:17:20.212Z,11.17
2022-11-27T21:19:56.358Z,9.63
2022-11-27T21:22:32.101Z,8.80
2022-11-27T21:25:07.899Z,9.23
2022-11-27T21:27:42.747Z,9.23
2022-11-27T21:30:19.036Z,9.37
2022-11-27T21:32:53.936Z,9.70
2022-11-27T21:35:32.232Z,8.70
2022-11-27T21:38:08.891Z,7.43
2022-11-27T21:40:43.863Z,8.00
2022-11-27T21:43:18.767Z,8.60
2022-11-27T21:45:54.049Z,8.50
2022-11-27T21:48:30.719Z,8.33
2022-11-27T21:51:07.587Z,11.13
2022-11-27T21:53:45.164Z,7.50
2022-11-27T21:56:22.820Z,8.60
2022-11-27T21:58:57.725Z,8.53
2022-11-27T22:01:33.148Z,8.23
2022-11-27T22:04:08.023Z,8.63
2022-11-27T22:06:47.515Z,7.77
2022-11-27T22:09:22.854Z,9.53
2022-11-27T22:11:57.693Z,8.87
2022-11-27T22:14:33.611Z,9.47
2022-11-27T22:17:08.572Z,7.67
2022-11-27T22:19:44.223Z,8.70
2022-11-27T22:22:19.315Z,9.27
2022-11-27T22:24:55.091Z,7.50
2022-11-27T22:27:30.012Z,10.53
2022-11-27T22:30:06.403Z,8.70
2022-11-27T22:32:41.254Z,7.20
2022-11-27T22:35:16.395Z,8.03
2022-11-27T22:37:55.329Z,8.30
2022-11-27T22:40:31.023Z,8.57
2022-11-27T22:43:05.941Z,7.90
2022-11-27T22:45:47.660Z,7.83
2022-11-27T22:48:22.774Z,7.43
2022-11-27T22:50:58.982Z,7.53
2022-11-27T22:53:34.089Z,8.47
2022-11-27T22:56:13.545Z,7.63
2022-11-27T22:58:49.193Z,7.10
2022-11-27T23:01:25.434Z,7.63
2022-11-27T23:04:01.409Z,7.70
2022-11-27T23:06:36.931Z,6.83
2022-11-27T23:09:11.817Z,8.43
2022-11-27T23:11:47.356Z,6.93
2022-11-27T23:14:22.513Z,6.17
2022-11-27T23:16:57.419Z,8.43
2022-11-27T23:19:32.440Z,7.30
2022-11-27T23:22:07.267Z,7.57
2022-11-27T23:24:42.455Z,6.87
2022-11-27T23:27:17.497Z,8.40
2022-11-27T23:29:52.417Z,7.33
2022-11-27T23:32:27.305Z,8.77
2022-11-27T23:35:02.205Z,7.13
2022-11-27T23:37:37.557Z,6.50
2022-11-27T23:40:12.815Z,7.43
2022-11-27T23:42:47.760Z,7.60
2022-11-27T23:45:22.590Z,8.40
2022-11-27T23:47:57.611Z,5.90
2022-11-27T23:50:32.512Z,6.70
2022-11-27T23:53:07.411Z,9.43
2022-11-27T23:55:42.257Z,6.40
2022-11-27T23:58:17.136Z,7.43
